Time;durP1;ratioP1;P1;durP2;ratioP2;P2;SDS_P1;SDS_P2;PMS_P1;PMS_P2;Temp;Humidity;BMP_temperature;BMP_pressure;BME280_temperature;BME280_humidity;BME280_pressure;Samples;Min_cycle;Max_cycle;Signal;HPM_P1;HPM_P2
2023/09/17 00:00:28;;;;;;;120.30;114.93;;;;;;;25.60;48.77;101259.16;5025645;28;20018;-79
2023/09/17 00:02:55;;;;;;;114.20;109.10;;;;;;;25.59;48.69;101259.47;5007880;28;20076;-74
2023/09/17 00:05:21;;;;;;;116.07;110.78;;;;;;;25.58;48.41;101249.56;5018551;28;20040;-75
2023/09/17 00:07:46;;;;;;;117.90;112.65;;;;;;;25.56;48.99;101244.38;5011455;28;20034;-74
2023/09/17 00:10:12;;;;;;;114.68;109.38;;;;;;;25.54;48.65;101246.66;5020371;28;20038;-74
2023/09/17 00:12:37;;;;;;;116.30;111.07;;;;;;;25.53;48.82;101236.75;5014757;28;20037;-76
2023/09/17 00:15:03;;;;;;;117.53;112.32;;;;;;;25.52;48.75;101234.28;5016242;28;20072;-74
2023/09/17 00:17:28;;;;;;;113.47;108.45;;;;;;;25.51;48.77;101232.69;5005502;28;20042;-73
2023/09/17 00:19:54;;;;;;;115.85;110.47;;;;;;;25.49;48.54;101238.53;5019497;28;20061;-73
2023/09/17 00:22:19;;;;;;;114.13;109.03;;;;;;;25.48;48.63;101229.44;5016089;28;20075;-74
2023/09/17 00:24:45;;;;;;;117.35;112.03;;;;;;;25.46;48.61;101223.41;5016219;28;20033;-74
2023/09/17 00:27:10;;;;;;;120.85;115.32;;;;;;;25.45;48.75;101223.72;5007957;28;20102;-74
2023/09/17 00:29:36;;;;;;;117.13;111.63;;;;;;;25.43;48.59;101220.50;5021316;28;20049;-75
2023/09/17 00:32:02;;;;;;;112.60;107.55;;;;;;;25.43;48.75;101217.75;5025252;28;20084;-74
2023/09/17 00:34:28;;;;;;;112.18;107.07;;;;;;;25.41;48.54;101209.78;5023466;28;20029;-73
2023/09/17 00:36:53;;;;;;;110.88;105.80;;;;;;;25.40;48.66;101205.41;5010869;28;20529;-77
2023/09/17 00:39:19;;;;;;;109.40;104.35;;;;;;;25.39;48.73;101203.75;5008414;28;20057;-75
2023/09/17 00:41:44;;;;;;;109.85;104.75;;;;;;;25.38;48.71;101202.16;5019955;28;20053;-75
2023/09/17 00:44:10;;;;;;;111.30;106.28;;;;;;;25.36;48.59;101196.13;5026660;28;20119;-74
2023/09/17 00:46:36;;;;;;;110.88;105.53;;;;;;;25.36;48.96;101200.84;5019642;28;20053;-74
2023/09/17 00:49:02;;;;;;;110.45;105.50;;;;;;;25.34;48.75;101205.91;5005543;28;20121;-73
2023/09/17 00:51:28;;;;;;;111.53;106.53;;;;;;;25.33;48.85;101205.09;5010060;28;20498;-74
2023/09/17 00:53:56;;;;;;;113.22;108.15;;;;;;;25.33;48.51;101209.81;5012132;28;20033;-76
2023/09/17 00:56:22;;;;;;;109.60;104.65;;;;;;;25.31;48.74;101207.38;5010205;28;20458;-73
2023/09/17 00:58:50;;;;;;;112.68;107.47;;;;;;;25.30;48.40;101199.41;5012725;28;20046;-77
2023/09/17 01:01:16;;;;;;;107.93;103.07;;;;;;;25.28;48.76;101202.50;5006933;28;20540;-74
2023/09/17 01:03:41;;;;;;;112.28;107.07;;;;;;;25.28;48.58;101193.41;5015130;28;20042;-74
2023/09/17 01:06:11;;;;;;;111.05;105.97;;;;;;;25.26;48.61;101196.50;5016418;28;20030;-74
2023/09/17 01:08:37;;;;;;;108.35;103.30;;;;;;;25.25;48.78;101192.13;5014802;28;20041;-77
2023/09/17 01:11:03;;;;;;;108.85;103.95;;;;;;;25.23;48.66;101189.69;5025204;28;20050;-77
2023/09/17 01:13:29;;;;;;;113.82;108.75;;;;;;;25.22;48.99;101190.00;5019828;28;20823;-75
2023/09/17 01:15:55;;;;;;;112.20;106.82;;;;;;;25.20;48.77;101189.50;5016774;28;20153;-75
2023/09/17 01:18:21;;;;;;;111.10;106.00;;;;;;;25.20;48.60;101189.50;5014755;28;20038;-75
2023/09/17 01:21:27;;;;;;;109.90;104.80;;;;;;;25.15;48.93;101176.69;5018589;28;20129;-75
2023/09/17 01:24:14;;;;;;;112.53;107.28;;;;;;;25.13;48.64;101170.66;4998985;28;20018;-76
2023/09/17 01:26:40;;;;;;;110.32;105.30;;;;;;;25.12;48.80;101170.97;5006829;28;20054;-77
2023/09/17 01:29:06;;;;;;;109.10;104.10;;;;;;;25.11;48.77;101175.69;5024663;28;20033;-74
2023/09/17 01:31:34;;;;;;;108.28;103.18;;;;;;;25.10;48.82;101164.97;5006529;28;20467;-77
2023/09/17 01:34:00;;;;;;;110.40;105.43;;;;;;;25.09;48.90;101166.13;5025751;28;20040;-74
2023/09/17 01:36:25;;;;;;;106.65;101.95;;;;;;;25.08;48.75;101168.09;5003131;28;20038;-75
2023/09/17 01:38:59;;;;;;;109.00;103.80;;;;;;;25.08;48.72;101170.03;5001314;28;20038;-75
2023/09/17 01:41:27;;;;;;;109.00;103.85;;;;;;;25.05;48.74;101163.22;5011957;28;20107;-75
2023/09/17 01:43:54;;;;;;;108.07;103.00;;;;;;;25.04;48.50;101167.09;5022479;28;20038;-76
2023/09/17 01:46:22;;;;;;;108.40;103.55;;;;;;;25.03;48.55;101160.78;5017472;28;20025;-73
2023/09/17 01:48:49;;;;;;;112.28;106.65;;;;;;;25.01;48.57;101159.47;5019994;28;20359;-73
2023/09/17 01:51:15;;;;;;;109.95;104.93;;;;;;;25.00;48.58;101158.69;5012214;28;20121;-74
2023/09/17 01:53:41;;;;;;;106.80;101.90;;;;;;;24.98;48.80;101152.66;5007061;28;20037;-75
2023/09/17 01:56:07;;;;;;;108.85;103.85;;;;;;;24.99;48.84;101147.94;5018260;28;20103;-76
2023/09/17 01:58:33;;;;;;;108.55;103.13;;;;;;;24.98;48.40;101157.38;5018939;28;20039;-75
2023/09/17 02:00:59;;;;;;;105.00;100.10;;;;;;;24.96;48.84;101162.44;5016768;28;20038;-74
2023/09/17 02:03:25;;;;;;;104.88;99.97;;;;;;;24.95;48.86;101160.81;5001029;28;20054;-76
2023/09/17 02:05:50;;;;;;;105.88;101.07;;;;;;;24.94;48.70;101154.44;5012332;28;20049;-75
2023/09/17 02:08:16;;;;;;;106.65;101.85;;;;;;;24.93;48.58;101157.56;5014631;28;20042;-75
2023/09/17 02:10:41;;;;;;;109.47;104.47;;;;;;;24.91;48.78;101163.41;5003982;28;20038;-78
2023/09/17 02:13:07;;;;;;;103.88;98.97;;;;;;;24.90;48.55;101159.03;5027555;28;20041;-76
2023/09/17 02:15:33;;;;;;;108.15;103.25;;;;;;;24.90;48.37;101155.47;5009475;28;20034;-77
2023/09/17 02:17:58;;;;;;;101.30;96.57;;;;;;;24.88;48.71;101161.31;5017083;28;20034;-74
2023/09/17 02:20:24;;;;;;;107.15;102.32;;;;;;;24.87;48.54;101161.63;5016789;28;20553;-74
2023/09/17 02:22:50;;;;;;;104.82;99.95;;;;;;;24.85;48.63;101156.44;5014372;28;20042;-75
2023/09/17 02:25:16;;;;;;;105.18;100.05;;;;;;;24.82;48.50;101149.63;5016660;28;20102;-76
2023/09/17 02:27:41;;;;;;;101.05;96.45;;;;;;;24.81;48.56;101161.81;5015442;28;20038;-74
2023/09/17 02:30:08;;;;;;;108.78;103.78;;;;;;;24.80;48.60;101149.16;5025454;28;20417;-76
2023/09/17 02:32:34;;;;;;;103.43;98.57;;;;;;;24.79;48.36;101158.56;5016063;28;20064;-74
2023/09/17 02:35:00;;;;;;;105.15;100.22;;;;;;;24.77;48.39;101149.81;5006534;28;20070;-74
2023/09/17 02:37:26;;;;;;;105.68;100.78;;;;;;;24.76;48.65;101142.66;5005196;28;20065;-74
2023/09/17 02:39:51;;;;;;;108.50;103.50;;;;;;;24.76;48.44;101152.91;5012230;28;20038;-76
2023/09/17 02:42:17;;;;;;;103.88;99.13;;;;;;;24.74;48.27;101144.91;4992568;28;20057;-74
2023/09/17 02:44:43;;;;;;;109.35;104.40;;;;;;;24.73;48.32;101143.31;5012423;28;20073;-74
2023/09/17 02:47:09;;;;;;;109.18;103.97;;;;;;;24.72;48.33;101138.09;5014513;28;20188;-78
2023/09/17 02:49:34;;;;;;;106.88;101.80;;;;;;;24.70;48.55;101143.97;5014957;28;20079;-76
2023/09/17 02:52:00;;;;;;;104.30;99.38;;;;;;;24.70;48.31;101140.41;5015416;28;20133;-76
2023/09/17 02:54:25;;;;;;;101.35;96.75;;;;;;;24.69;48.60;101136.00;5016914;28;20093;-78
2023/09/17 02:56:51;;;;;;;106.43;101.55;;;;;;;24.66;48.88;101145.75;5010865;28;20525;-74
2023/09/17 02:59:16;;;;;;;104.38;99.60;;;;;;;24.66;48.32;101142.19;5014171;28;20535;-74
2023/09/17 03:01:41;;;;;;;103.40;98.70;;;;;;;24.63;48.54;101132.63;5015206;28;20048;-76
2023/09/17 03:04:07;;;;;;;105.18;100.43;;;;;;;24.63;48.46;101129.03;5018278;28;20513;-76
2023/09/17 03:06:33;;;;;;;106.10;101.28;;;;;;;24.60;48.48;101128.56;5012293;28;20413;-74
2023/09/17 03:08:59;;;;;;;106.40;101.50;;;;;;;24.59;48.40;101132.47;5034318;28;20029;-74
2023/09/17 03:11:26;;;;;;;106.05;101.25;;;;;;;24.58;48.66;101130.03;5016198;28;20355;-74
2023/09/17 03:13:52;;;;;;;105.20;100.47;;;;;;;24.55;48.64;101119.63;5024689;28;20542;-75
2023/09/17 03:16:18;;;;;;;104.28;99.68;;;;;;;24.55;48.58;101119.63;5025743;28;20057;-75
2023/09/17 03:18:45;;;;;;;103.97;99.18;;;;;;;24.53;48.67;101119.97;5016562;28;20069;-74
2023/09/17 03:21:11;;;;;;;107.32;102.55;;;;;;;24.52;48.56;101121.09;5025047;28;20129;-74
2023/09/17 03:23:37;;;;;;;103.60;98.82;;;;;;;24.50;48.30;101120.63;5014519;28;20037;-76
2023/09/17 03:26:04;;;;;;;102.18;97.38;;;;;;;24.49;48.62;101124.50;5012109;28;20057;-75
2023/09/17 03:28:31;;;;;;;103.07;98.18;;;;;;;24.50;48.47;101128.09;5022303;28;20091;-74
2023/09/17 03:30:57;;;;;;;100.75;96.15;;;;;;;24.48;48.50;101127.63;5014877;28;20072;-75
2023/09/17 03:33:22;;;;;;;102.43;97.68;;;;;;;24.47;48.58;101121.28;5028434;28;20041;-78
2023/09/17 03:35:48;;;;;;;103.25;98.43;;;;;;;24.46;48.22;101122.41;5020483;28;20082;-76
2023/09/17 03:38:13;;;;;;;101.60;96.90;;;;;;;24.45;48.80;101114.44;5008745;28;20041;-75
2023/09/17 03:40:39;;;;;;;105.07;100.28;;;;;;;24.43;48.40;101117.50;5028259;28;20030;-75
2023/09/17 03:43:06;;;;;;;103.97;99.05;;;;;;;24.41;48.27;101119.78;5013054;28;20037;-76
2023/09/17 03:45:31;;;;;;;104.25;99.45;;;;;;;24.40;48.45;101121.75;5009971;28;20030;-74
2023/09/17 03:47:57;;;;;;;104.72;99.85;;;;;;;24.39;48.34;101122.88;5017895;28;20042;-74
2023/09/17 03:50:23;;;;;;;102.20;97.30;;;;;;;24.37;48.49;101116.88;5016583;28;20037;-74
2023/09/17 03:52:52;;;;;;;105.38;100.50;;;;;;;24.37;48.41;101127.13;5020164;28;20037;-77
2023/09/17 03:55:18;;;;;;;103.65;99.00;;;;;;;24.35;48.39;101121.91;5017158;28;20151;-75
2023/09/17 03:57:44;;;;;;;101.68;97.00;;;;;;;24.34;48.68;101134.09;5007379;28;20125;-75
2023/09/17 04:00:13;;;;;;;109.20;104.05;;;;;;;24.34;48.50;101134.09;5012826;28;20037;-79
2023/09/17 04:02:39;;;;;;;103.75;99.13;;;;;;;24.32;48.64;101128.09;5019455;28;20394;-75
2023/09/17 04:05:10;;;;;;;104.40;99.53;;;;;;;24.30;48.22;101124.84;5030229;28;20038;-75
2023/09/17 04:07:36;;;;;;;101.07;96.35;;;;;;;24.29;48.45;101131.50;5020158;28;20045;-79
2023/09/17 04:10:05;;;;;;;106.85;101.85;;;;;;;24.27;48.42;101131.03;5010290;28;20458;-77
2023/09/17 04:12:32;;;;;;;110.68;105.47;;;;;;;24.26;48.68;101131.34;5011045;28;20129;-76
2023/09/17 04:14:57;;;;;;;103.90;99.13;;;;;;;24.26;48.48;101126.63;5021004;28;20048;-75
2023/09/17 04:17:23;;;;;;;100.88;96.25;;;;;;;24.24;48.34;101123.41;5018160;28;20053;-75
2023/09/17 04:19:50;;;;;;;103.93;99.22;;;;;;;24.23;48.41;101121.75;5019054;28;20070;-72
2023/09/17 04:22:16;;;;;;;103.75;99.05;;;;;;;24.23;48.61;101119.00;5008451;28;20087;-76
2023/09/17 04:24:42;;;;;;;100.63;95.93;;;;;;;24.21;48.56;101129.53;5010666;28;20038;-74
2023/09/17 04:27:08;;;;;;;104.90;100.00;;;;;;;24.20;48.15;101122.41;5025526;28;20136;-73
2023/09/17 04:29:34;;;;;;;102.60;97.93;;;;;;;24.18;48.54;101117.22;5016505;28;20386;-74
2023/09/17 04:31:59;;;;;;;105.47;100.70;;;;;;;24.17;48.66;101117.56;5012620;28;20117;-77
2023/09/17 04:34:25;;;;;;;101.93;97.05;;;;;;;24.15;48.78;101117.06;5010748;28;20038;-74
2023/09/17 04:36:51;;;;;;;99.75;95.10;;;;;;;24.14;48.23;101118.19;5009533;28;20049;-74
2023/09/17 04:39:16;;;;;;;101.85;97.15;;;;;;;24.12;48.33;101118.53;5020489;28;20667;-77
2023/09/17 04:41:43;;;;;;;104.07;99.32;;;;;;;24.11;48.34;101118.84;5022777;28;20046;-74
2023/09/17 04:44:10;;;;;;;101.18;96.63;;;;;;;24.09;48.75;101112.81;5020239;28;20091;-74
2023/09/17 04:46:39;;;;;;;105.90;101.00;;;;;;;24.09;48.50;101110.06;5012425;28;20061;-78
2023/09/17 04:49:05;;;;;;;104.22;99.15;;;;;;;24.06;48.52;101119.81;5010094;28;20037;-74
2023/09/17 04:51:30;;;;;;;98.00;93.28;;;;;;;24.05;48.79;101109.91;5015443;28;20057;-74
2023/09/17 04:53:56;;;;;;;102.90;97.75;;;;;;;24.05;48.43;101109.09;5009499;28;20042;-77
2023/09/17 04:56:21;;;;;;;100.38;95.57;;;;;;;24.02;48.50;101107.81;5018261;28;20494;-74
2023/09/17 04:58:46;;;;;;;106.82;101.90;;;;;;;24.01;48.83;101111.69;5005145;28;20257;-75
2023/09/17 05:01:14;;;;;;;103.63;98.60;;;;;;;24.00;48.92;101112.84;5026208;28;20117;-76
2023/09/17 05:03:41;;;;;;;101.72;97.03;;;;;;;23.98;48.49;101110.41;5015878;28;20050;-73
2023/09/17 05:06:07;;;;;;;102.60;97.90;;;;;;;23.97;48.32;101114.31;5017714;28;20045;-75
2023/09/17 05:08:32;;;;;;;99.45;94.65;;;;;;;23.97;48.33;101114.31;5019818;28;20034;-76
2023/09/17 05:10:58;;;;;;;99.72;95.13;;;;;;;23.95;48.33;101121.28;5003337;28;20146;-77
2023/09/17 05:13:23;;;;;;;96.78;92.25;;;;;;;23.94;48.85;101125.19;5011007;28;20471;-74
2023/09/17 05:15:48;;;;;;;101.55;96.75;;;;;;;23.93;48.47;101118.03;5016805;28;20041;-76
2023/09/17 05:18:14;;;;;;;100.47;95.82;;;;;;;23.92;48.83;101119.19;5019666;28;20471;-75
2023/09/17 05:20:43;;;;;;;99.28;94.70;;;;;;;23.90;48.56;101110.41;5018413;28;20038;-75
2023/09/17 05:23:10;;;;;;;103.28;97.80;;;;;;;23.89;48.32;101115.13;5024477;28;20037;-73
2023/09/17 05:25:35;;;;;;;101.43;96.72;;;;;;;23.87;48.58;101117.38;5000247;28;20034;-73
2023/09/17 05:28:03;;;;;;;95.07;90.68;;;;;;;23.86;48.67;101121.25;5020400;28;20394;-74
2023/09/17 05:30:29;;;;;;;97.53;92.93;;;;;;;23.85;48.61;101116.88;5032147;28;20033;-75
2023/09/17 05:32:54;;;;;;;96.78;92.18;;;;;;;23.84;48.66;101114.44;4980186;28;20042;-77
2023/09/17 05:35:19;;;;;;;100.20;95.50;;;;;;;23.83;48.44;101115.59;4995325;28;20049;-74
2023/09/17 05:37:45;;;;;;;101.53;96.57;;;;;;;23.81;48.53;101115.91;5011037;28;20065;-76
2023/09/17 05:40:10;;;;;;;100.05;95.30;;;;;;;23.80;48.83;101105.22;5025061;28;20041;-75
2023/09/17 05:42:37;;;;;;;100.18;95.40;;;;;;;23.79;48.34;101117.34;5014782;28;20052;-75
2023/09/17 05:45:03;;;;;;;102.20;97.43;;;;;;;23.78;48.75;101121.25;5018233;28;20080;-75
2023/09/17 05:47:29;;;;;;;97.13;92.53;;;;;;;23.76;48.47;101116.06;5013244;28;20069;-73
2023/09/17 05:49:55;;;;;;;98.15;93.57;;;;;;;23.75;48.39;101114.44;5021856;28;20445;-76
2023/09/17 05:52:21;;;;;;;99.63;94.95;;;;;;;23.74;48.70;101121.91;5016129;28;20026;-76
2023/09/17 05:54:46;;;;;;;99.05;94.32;;;;;;;23.72;48.66;101110.38;5020521;28;20525;-76
2023/09/17 05:57:12;;;;;;;98.88;94.03;;;;;;;23.72;48.63;101112.31;5012063;28;20493;-77
2023/09/17 05:59:37;;;;;;;97.57;92.88;;;;;;;23.71;48.63;101116.19;5007789;28;20035;-77
2023/09/17 06:02:03;;;;;;;98.90;94.20;;;;;;;23.69;48.36;101111.00;5007770;28;20108;-77
2023/09/17 06:04:28;;;;;;;97.93;93.32;;;;;;;23.69;48.82;101104.69;5011387;28;20105;-78
2023/09/17 06:06:53;;;;;;;98.50;93.75;;;;;;;23.67;48.88;101105.00;5013418;28;20052;-75
2023/09/17 06:09:19;;;;;;;99.00;94.35;;;;;;;23.65;48.54;101104.50;5023813;28;20029;-74
2023/09/17 06:11:44;;;;;;;96.03;91.63;;;;;;;23.64;48.51;101108.41;5009256;28;20173;-74
2023/09/17 06:14:09;;;;;;;96.78;92.30;;;;;;;23.63;48.65;101108.72;5015662;28;20046;-76
2023/09/17 06:16:35;;;;;;;96.65;92.07;;;;;;;23.62;48.59;101115.38;5023919;28;20428;-74
2023/09/17 06:19:00;;;;;;;98.15;93.43;;;;;;;23.61;48.47;101111.81;5012088;28;20470;-75
2023/09/17 06:21:26;;;;;;;96.80;92.10;;;;;;;23.59;48.88;101114.06;5004664;28;20043;-74
2023/09/17 06:23:51;;;;;;;97.97;93.43;;;;;;;23.59;48.81;101127.88;5010603;28;20030;-76
2023/09/17 06:26:16;;;;;;;97.18;92.57;;;;;;;23.58;48.83;101122.66;5000152;28;20058;-75
2023/09/17 06:28:42;;;;;;;98.03;93.47;;;;;;;23.56;48.81;101120.22;5009173;28;20029;-75
2023/09/17 06:31:08;;;;;;;94.93;90.40;;;;;;;23.55;48.53;101118.59;5020547;28;20042;-75
2023/09/17 06:33:35;;;;;;;98.63;94.00;;;;;;;23.54;48.53;101120.53;5014517;28;20104;-75
2023/09/17 06:36:00;;;;;;;97.63;93.07;;;;;;;23.52;48.69;101120.06;5010115;28;20045;-76
2023/09/17 06:38:26;;;;;;;99.00;94.20;;;;;;;23.52;48.43;101124.75;5015017;28;20452;-74
2023/09/17 06:40:51;;;;;;;98.65;94.05;;;;;;;23.50;48.84;101127.03;5010865;28;20033;-75
2023/09/17 06:43:17;;;;;;;98.15;93.45;;;;;;;23.49;48.57;101117.13;5022725;28;20113;-76
2023/09/17 06:45:42;;;;;;;95.85;91.43;;;;;;;23.48;48.58;101121.00;5016470;28;20041;-76
2023/09/17 06:48:08;;;;;;;98.63;94.00;;;;;;;23.47;48.81;101124.91;5019364;28;20512;-75
2023/09/17 06:50:33;;;;;;;94.50;90.10;;;;;;;23.45;48.94;101130.72;5008768;28;20483;-76
2023/09/17 06:52:59;;;;;;;95.50;91.03;;;;;;;23.45;48.44;101132.69;4992431;28;20498;-76
2023/09/17 06:55:25;;;;;;;94.00;89.63;;;;;;;23.43;49.01;101123.91;5005859;28;20473;-76
2023/09/17 06:57:50;;;;;;;94.07;89.70;;;;;;;23.42;48.44;101128.63;5016383;28;20034;-74
2023/09/17 07:00:15;;;;;;;96.50;91.88;;;;;;;23.42;48.99;101130.56;5008335;28;20050;-76
2023/09/17 07:02:41;;;;;;;94.10;89.60;;;;;;;23.41;48.98;101127.00;5012484;28;20065;-78
2023/09/17 07:05:08;;;;;;;93.18;88.68;;;;;;;23.40;48.53;101124.56;5018450;28;20475;-74
2023/09/17 07:07:34;;;;;;;93.20;88.97;;;;;;;23.38;48.52;101130.38;4999071;28;20475;-77
2023/09/17 07:10:00;;;;;;;94.32;89.88;;;;;;;23.38;48.51;101129.56;5021281;28;20097;-74
2023/09/17 07:12:25;;;;;;;95.40;90.80;;;;;;;23.38;48.80;101132.34;5030246;28;20030;-74
2023/09/17 07:14:51;;;;;;;92.75;88.30;;;;;;;23.36;48.69;101129.09;5015892;28;20096;-75
2023/09/17 07:17:16;;;;;;;93.63;89.03;;;;;;;23.36;48.50;101132.69;4994591;28;20037;-74
2023/09/17 07:19:42;;;;;;;94.10;89.60;;;;;;;23.34;48.62;101132.19;5027385;28;20489;-74
2023/09/17 07:22:11;;;;;;;93.90;89.47;;;;;;;23.34;48.83;101129.41;4996329;28;20403;-74
2023/09/17 07:24:37;;;;;;;94.22;89.75;;;;;;;23.32;48.98;101123.41;5019748;28;20490;-74
2023/09/17 07:27:03;;;;;;;96.70;92.20;;;;;;;23.32;48.58;101128.91;5009618;28;20088;-77
2023/09/17 07:29:29;;;;;;;98.30;93.55;;;;;;;23.31;48.96;101121.78;5030703;28;20045;-75
2023/09/17 07:31:54;;;;;;;92.90;88.57;;;;;;;23.28;48.74;101117.75;5014965;28;20487;-74
2023/09/17 07:34:20;;;;;;;98.57;93.88;;;;;;;23.27;48.74;101123.56;5010760;28;20038;-74
2023/09/17 07:36:45;;;;;;;91.85;87.55;;;;;;;23.26;48.64;101113.69;5007543;28;20038;-76
2023/09/17 07:39:10;;;;;;;93.32;89.00;;;;;;;23.25;48.92;101112.03;5008484;28;20042;-74
2023/09/17 07:41:36;;;;;;;94.40;89.93;;;;;;;23.24;48.69;101116.75;5003645;28;20608;-74
2023/09/17 07:44:01;;;;;;;91.82;87.50;;;;;;;23.24;49.01;101110.41;5013974;28;20057;-73
2023/09/17 07:46:27;;;;;;;93.43;89.00;;;;;;;23.23;48.58;101115.09;5013767;28;20125;-75
2023/09/17 07:48:52;;;;;;;92.68;88.32;;;;;;;23.21;48.60;101106.38;5012576;28;20038;-74
2023/09/17 07:51:18;;;;;;;93.53;89.20;;;;;;;23.21;48.96;101111.88;5017935;28;20032;-78
2023/09/17 07:53:43;;;;;;;94.10;89.68;;;;;;;23.21;48.80;101117.38;5011941;28;20128;-75
2023/09/17 07:56:10;;;;;;;94.18;89.68;;;;;;;23.20;48.67;101120.44;5019155;28;20124;-75
2023/09/17 07:58:36;;;;;;;95.15;90.70;;;;;;;23.20;48.77;101123.19;5010389;28;20057;-77
2023/09/17 08:01:04;;;;;;;92.85;88.57;;;;;;;23.20;48.57;101123.19;5009262;28;20068;-74
2023/09/17 08:03:30;;;;;;;96.00;91.20;;;;;;;23.18;48.90;101122.69;5013562;28;20022;-76
2023/09/17 08:05:56;;;;;;;93.68;89.40;;;;;;;23.18;49.13;101130.97;5013534;28;20033;-76
2023/09/17 08:08:22;;;;;;;91.95;87.65;;;;;;;23.17;48.73;101137.63;5013227;28;20030;-77
2023/09/17 08:10:49;;;;;;;90.72;86.38;;;;;;;23.17;48.76;101134.88;5014191;28;20045;-75
2023/09/17 08:13:14;;;;;;;94.13;89.53;;;;;;;23.15;48.92;101129.66;5001834;28;20061;-75
2023/09/17 08:15:40;;;;;;;90.57;86.47;;;;;;;23.15;48.89;101129.66;5016280;28;20434;-75
2023/09/17 08:18:06;;;;;;;91.55;87.10;;;;;;;23.15;49.04;101135.19;5013387;28;20118;-73
2023/09/17 08:20:32;;;;;;;93.80;89.30;;;;;;;23.13;48.67;101134.69;5008970;28;20481;-75
2023/09/17 08:22:58;;;;;;;92.50;88.13;;;;;;;23.13;48.84;101133.88;5012377;28;20029;-74
2023/09/17 08:25:24;;;;;;;90.55;86.32;;;;;;;23.12;49.01;101138.56;5012042;28;20029;-74
2023/09/17 08:27:51;;;;;;;90.82;86.60;;;;;;;23.12;48.65;101130.31;5008506;28;20042;-73
2023/09/17 08:30:16;;;;;;;90.38;86.22;;;;;;;23.11;48.95;101134.22;5012761;28;20037;-76
2023/09/17 08:32:44;;;;;;;92.18;87.88;;;;;;;23.11;49.07;101136.97;5014595;28;20045;-74
2023/09/17 08:35:11;;;;;;;92.18;87.80;;;;;;;23.09;48.67;101141.97;5010109;28;20116;-73
2023/09/17 08:37:38;;;;;;;92.38;87.95;;;;;;;23.09;49.03;101134.50;5016569;28;20041;-75
2023/09/17 08:40:10;;;;;;;87.80;83.78;;;;;;;23.09;48.95;101130.94;5015159;28;20034;-76
2023/09/17 08:42:40;;;;;;;92.78;88.38;;;;;;;23.09;48.70;101136.47;5009283;28;20088;-77
2023/09/17 08:45:06;;;;;;;95.60;91.22;;;;;;;23.08;48.92;101140.31;5007444;28;20038;-74
2023/09/17 08:47:32;;;;;;;93.00;88.55;;;;;;;23.07;48.51;101135.97;5010972;28;20037;-75
2023/09/17 08:49:57;;;;;;;92.55;88.18;;;;;;;23.07;49.02;101138.72;5013355;28;20049;-74
2023/09/17 08:52:26;;;;;;;93.10;88.75;;;;;;;23.06;49.29;101137.91;4989473;28;20124;-77
2023/09/17 08:54:52;;;;;;;;;;;;;;;23.01;48.83;101151.81;5018206;28;20049;-77
2023/09/17 08:57:21;;;;;;;89.07;84.88;;;;;;;23.03;49.22;101148.72;5007945;28;19917;-77
2023/09/17 08:59:55;;;;;;;90.93;86.43;;;;;;;23.02;49.19;101147.94;5014162;28;20092;-76
2023/09/17 09:02:25;;;;;;;87.57;83.38;;;;;;;23.03;49.09;101162.50;5006776;28;20162;-74
2023/09/17 09:04:50;;;;;;;92.03;87.63;;;;;;;23.02;48.84;101160.91;5015074;28;20112;-78
2023/09/17 09:07:20;;;;;;;89.63;85.47;;;;;;;23.02;48.87;101156.19;5010511;28;20118;-76
2023/09/17 09:09:50;;;;;;;92.20;87.90;;;;;;;23.01;48.76;101157.34;5010710;28;20050;-73
2023/09/17 09:12:16;;;;;;;89.65;85.47;;;;;;;23.01;48.95;101157.34;5013125;28;20066;-76
2023/09/17 09:14:44;;;;;;;90.93;86.63;;;;;;;23.02;49.02;101163.66;5011151;28;20104;-74
2023/09/17 09:17:11;;;;;;;91.25;87.05;;;;;;;23.02;49.01;101166.41;5013829;28;20037;-76
2023/09/17 09:19:37;;;;;;;95.10;90.70;;;;;;;23.02;49.01;101163.66;5014339;28;20030;-75
2023/09/17 09:22:02;;;;;;;91.57;87.28;;;;;;;23.01;49.31;101170.31;5011796;28;20053;-73
2023/09/17 09:24:45;;;;;;;90.20;85.88;;;;;;;23.01;48.74;101162.84;5009877;28;20444;-77
2023/09/17 09:27:10;;;;;;;89.82;85.70;;;;;;;23.00;48.85;101163.97;5012433;28;20065;-75
2023/09/17 09:29:36;;;;;;;92.82;88.32;;;;;;;23.00;49.24;101152.13;5010402;28;20038;-77
2023/09/17 09:32:03;;;;;;;92.40;88.15;;;;;;;23.00;48.88;101155.69;5013214;28;20034;-73
2023/09/17 09:34:28;;;;;;;89.35;85.13;;;;;;;22.99;49.05;101151.31;5013314;28;20040;-77
2023/09/17 09:36:54;;;;;;;92.28;87.85;;;;;;;22.99;49.22;101139.50;5018951;28;20033;-75
2023/09/17 09:39:20;;;;;;;90.25;86.05;;;;;;;22.99;49.18;101143.06;5011494;28;20038;-74
2023/09/17 09:41:47;;;;;;;88.78;84.68;;;;;;;22.99;49.03;101143.06;4993883;28;20058;-73
2023/09/17 09:44:13;;;;;;;90.80;86.60;;;;;;;23.00;48.89;101141.91;5010098;28;20065;-75
2023/09/17 09:46:38;;;;;;;90.43;86.22;;;;;;;22.99;49.07;101145.00;5010558;28;20056;-76
2023/09/17 09:49:04;;;;;;;86.95;82.88;;;;;;;22.99;49.28;101142.25;5008811;28;20034;-77
2023/09/17 09:51:31;;;;;;;91.75;87.53;;;;;;;23.00;49.16;101143.88;5004788;28;20038;-80
2023/09/17 09:53:57;;;;;;;87.93;83.65;;;;;;;22.99;49.07;101147.75;5006582;28;20034;-75
2023/09/17 09:56:27;;;;;;;90.70;86.45;;;;;;;23.00;48.85;101141.91;5003916;28;20384;-76
2023/09/17 09:58:55;;;;;;;89.53;85.32;;;;;;;22.99;49.49;101143.06;4999188;28;20034;-75
2023/09/17 10:01:20;;;;;;;90.03;85.80;;;;;;;22.98;49.25;101144.19;5001067;28;20664;-76
2023/09/17 10:03:47;;;;;;;93.25;88.93;;;;;;;23.00;49.42;101149.38;5002470;28;20030;-77
2023/09/17 10:06:14;;;;;;;91.90;87.60;;;;;;;22.98;49.24;101140.59;5002369;28;20038;-79
2023/09/17 10:08:40;;;;;;;89.55;85.40;;;;;;;22.99;49.43;101139.50;5004808;28;20034;-79
2023/09/17 10:11:09;;;;;;;90.45;86.28;;;;;;;22.99;49.03;101139.50;5003891;28;20039;-75
2023/09/17 10:13:35;;;;;;;91.00;86.68;;;;;;;22.99;48.91;101142.25;4994860;28;20187;-78
2023/09/17 10:16:02;;;;;;;91.63;87.32;;;;;;;22.99;49.36;101139.50;5001761;28;20038;-80
2023/09/17 10:18:30;;;;;;;90.30;85.90;;;;;;;22.99;49.28;101136.75;5011384;28;20029;-75
2023/09/17 10:20:56;;;;;;;97.75;92.10;;;;;;;22.98;49.40;101135.09;5009123;28;20037;-80
2023/09/17 10:23:23;;;;;;;99.18;93.00;;;;;;;23.00;49.16;101135.59;5009754;28;20406;-76
2023/09/17 10:25:50;;;;;;;102.35;96.22;;;;;;;23.01;49.21;101128.97;5010146;28;20034;-76
2023/09/17 10:28:17;;;;;;;99.55;93.85;;;;;;;23.02;49.52;101130.59;5006654;28;20068;-76
2023/09/17 10:30:44;;;;;;;99.03;93.45;;;;;;;23.01;49.40;101129.78;5011903;28;20042;-75
2023/09/17 10:33:11;;;;;;;99.60;93.55;;;;;;;23.03;49.66;101138.56;5007544;28;20473;-77
2023/09/17 10:35:38;;;;;;;101.50;95.55;;;;;;;23.03;49.78;101129.44;5013663;28;20118;-80
2023/09/17 10:38:06;;;;;;;98.90;93.07;;;;;;;23.06;49.76;101134.34;5008179;28;20030;-77
2023/09/17 10:40:34;;;;;;;100.10;94.25;;;;;;;23.06;50.25;101131.59;5011311;28;20057;-78
2023/09/17 10:43:02;;;;;;;98.53;92.63;;;;;;;23.07;49.75;101127.69;5006864;28;20034;-74
2023/09/17 10:45:31;;;;;;;101.15;95.20;;;;;;;23.07;50.24;101117.47;5011145;28;20046;-77
2023/09/17 10:48:00;;;;;;;99.50;93.80;;;;;;;23.09;50.03;101123.50;5012518;28;20049;-74
2023/09/17 10:50:29;;;;;;;96.57;90.88;;;;;;;23.09;50.62;101128.19;5021175;28;20029;-75
2023/09/17 10:52:54;;;;;;;101.32;94.90;;;;;;;23.10;50.30;101119.59;5006743;28;20038;-75
2023/09/17 10:55:22;;;;;;;100.22;94.40;;;;;;;23.10;50.56;101119.59;5012858;28;20044;-74
2023/09/17 10:58:01;;;;;;;101.07;94.53;;;;;;;23.13;50.73;101115.38;5009914;28;20045;-76
2023/09/17 11:00:28;;;;;;;;;;;;;;;23.09;50.58;101109.72;5012622;28;20033;-82